createdAt,value
2023-04-14T04:02:37.502Z,8.00
2023-04-14T04:05:07.313Z,7.90
2023-04-14T04:07:37.034Z,7.90
2023-04-14T04:12:34.467Z,7.80
2023-04-14T04:15:02.943Z,7.80
2023-04-14T04:17:33.359Z,7.80
2023-04-14T04:20:07.198Z,7.80
2023-04-14T04:22:37.801Z,7.80
2023-04-14T04:25:06.887Z,7.90
2023-04-14T04:27:35.417Z,8.00
2023-04-14T04:30:04.899Z,8.00
2023-04-14T04:32:33.033Z,8.00
2023-04-14T04:35:03.381Z,8.00
2023-04-14T04:37:33.268Z,7.90
2023-04-14T04:40:01.173Z,8.00
2023-04-14T04:42:29.017Z,8.00
2023-04-14T04:44:57.082Z,7.90
2023-04-14T04:47:24.888Z,7.90
2023-04-14T04:49:52.735Z,8.00
2023-04-14T04:52:21.849Z,8.00
2023-04-14T04:54:52.355Z,8.00
2023-04-14T04:57:20.452Z,8.00
2023-04-14T04:59:48.363Z,7.90
2023-04-14T05:02:16.372Z,7.80
2023-04-14T05:04:44.188Z,7.80
2023-04-14T05:07:12.021Z,7.80
2023-04-14T05:09:41.096Z,7.80
2023-04-14T05:12:08.874Z,7.80
2023-04-14T05:14:36.947Z,7.70
2023-04-14T05:17:04.749Z,7.70
2023-04-14T05:19:32.513Z,7.70
2023-04-14T05:22:00.339Z,7.70
2023-04-14T05:24:28.139Z,7.80
2023-04-14T05:27:12.959Z,7.80
2023-04-14T05:29:41.348Z,7.70
2023-04-14T05:32:09.150Z,7.70
2023-04-14T05:34:36.969Z,7.80
2023-04-14T05:37:04.861Z,7.70
2023-04-14T05:39:32.931Z,7.60
2023-04-14T05:42:03.691Z,7.70
2023-04-14T05:47:03.783Z,7.60
2023-04-14T05:49:31.627Z,7.60
2023-04-14T05:51:59.578Z,7.70
2023-04-14T05:54:27.393Z,7.70
2023-04-14T05:56:56.327Z,7.80
2023-04-14T05:59:25.562Z,7.80
2023-04-14T06:01:53.437Z,7.80
2023-04-14T06:04:21.529Z,7.70
2023-04-14T06:06:49.461Z,7.60
2023-04-14T06:09:17.328Z,7.60
2023-04-14T06:11:45.107Z,7.50
2023-04-14T06:14:12.849Z,7.70
2023-04-14T06:16:42.080Z,7.70
2023-04-14T06:19:10.790Z,7.70
2023-04-14T06:21:38.547Z,7.70
2023-04-14T06:24:06.652Z,7.80
2023-04-14T06:26:34.448Z,7.90
2023-04-14T06:29:03.749Z,7.90
2023-04-14T06:31:31.814Z,7.90
2023-04-14T06:34:00.954Z,8.00
2023-04-14T06:36:28.890Z,8.10
2023-04-14T06:38:58.379Z,8.10
2023-04-14T06:41:26.390Z,8.00
2023-04-14T06:43:54.247Z,8.00
2023-04-14T06:46:22.054Z,7.90
2023-04-14T06:48:49.785Z,7.90
2023-04-14T06:51:19.389Z,8.00
2023-04-14T06:53:47.822Z,7.90
2023-04-14T06:56:15.920Z,7.90
2023-04-14T06:58:43.722Z,7.80
2023-04-14T07:01:11.492Z,7.80
2023-04-14T07:03:39.678Z,7.90
2023-04-14T07:06:10.183Z,7.90
2023-04-14T07:08:41.745Z,7.80
2023-04-14T07:11:11.410Z,5.50
2023-04-14T07:13:40.042Z,8.40
2023-04-14T07:16:08.521Z,8.00
2023-04-14T07:18:36.635Z,8.00
2023-04-14T07:21:04.723Z,8.00
2023-04-14T07:23:33.528Z,8.00
2023-04-14T07:26:03.090Z,8.00
2023-04-14T07:28:30.952Z,7.90
2023-04-14T07:30:58.862Z,8.00
2023-04-14T07:33:30.313Z,7.90
2023-04-14T07:36:03.509Z,7.90
2023-04-14T07:38:32.354Z,8.00
2023-04-14T07:41:04.339Z,8.10
2023-04-14T07:43:35.076Z,8.20
2023-04-14T07:46:04.810Z,8.30
2023-04-14T07:48:32.709Z,8.30
2023-04-14T07:51:00.459Z,8.40
2023-04-14T07:53:29.128Z,8.50
2023-04-14T07:58:29.023Z,8.70
2023-04-14T08:00:57.439Z,8.80
2023-04-14T08:03:25.542Z,8.90
2023-04-14T08:05:53.509Z,9.00
2023-04-14T08:08:21.363Z,9.10
2023-04-14T08:10:49.137Z,9.20
2023-04-14T08:13:17.017Z,9.30
2023-04-14T08:15:46.197Z,9.50
2023-04-14T08:18:14.092Z,9.60
2023-04-14T08:20:41.987Z,9.70
2023-04-14T08:23:11.115Z,9.60
2023-04-14T08:25:39.046Z,9.10
2023-04-14T08:28:06.866Z,9.50
2023-04-14T08:30:34.617Z,9.70
2023-04-14T08:33:03.755Z,9.70
2023-04-14T08:35:35.558Z,9.70
2023-04-14T08:38:08.127Z,9.80
2023-04-14T08:40:38.486Z,9.90
2023-04-14T08:43:07.292Z,10.10
2023-04-14T08:45:35.487Z,10.10
2023-04-14T08:48:05.803Z,10.20
2023-04-14T08:50:37.650Z,10.40
2023-04-14T08:53:09.646Z,10.40
2023-04-14T08:55:40.296Z,10.60
2023-04-14T08:58:10.459Z,10.70
2023-04-14T09:00:39.881Z,10.70
2023-04-14T09:10:42.954Z,11.00
2023-04-14T09:13:15.218Z,11.00
2023-04-14T09:15:43.412Z,11.00
2023-04-14T09:18:12.837Z,11.10
2023-04-14T09:25:42.266Z,11.30
2023-04-14T09:51:01.530Z,11.40
2023-04-14T09:53:33.748Z,11.60
2023-04-14T10:03:37.373Z,12.00
2023-04-14T10:48:39.314Z,12.90
2023-04-14T10:51:09.505Z,13.00
2023-04-14T11:14:27.808Z,13.50
2023-04-14T12:02:18.317Z,14.80
2023-04-14T12:55:05.881Z,15.90
2023-04-14T13:10:01.831Z,15.80
2023-04-14T13:37:19.074Z,15.90
2023-04-14T13:54:38.449Z,15.90
2023-04-14T14:11:57.464Z,16.20
2023-04-14T14:14:25.328Z,16.30
2023-04-14T14:16:53.587Z,16.40
2023-04-14T14:19:21.736Z,16.40
2023-04-14T14:21:49.970Z,16.50
2023-04-14T14:24:17.837Z,16.70
2023-04-14T14:26:46.941Z,16.70
2023-04-14T14:29:14.756Z,16.70
2023-04-14T14:31:42.697Z,16.80
2023-04-14T14:34:10.741Z,16.80
2023-04-14T14:36:38.606Z,16.60
2023-04-14T14:39:10.003Z,16.40
2023-04-14T14:41:37.849Z,16.40
2023-04-14T14:44:07.277Z,16.40
2023-04-14T14:46:35.411Z,16.40
2023-04-14T14:49:03.222Z,16.50
2023-04-14T14:51:31.716Z,16.50
2023-04-14T14:54:09.254Z,16.40
2023-04-14T14:56:37.973Z,16.30
2023-04-14T14:59:08.469Z,16.30
2023-04-14T15:01:36.640Z,16.30
2023-04-14T15:04:06.360Z,16.20
2023-04-14T15:06:36.037Z,16.30
2023-04-14T15:09:05.374Z,16.40
2023-04-14T15:11:33.209Z,16.60
2023-04-14T15:14:01.422Z,16.70
2023-04-14T15:16:31.192Z,16.60
2023-04-14T15:18:59.084Z,16.40
2023-04-14T15:21:26.809Z,16.20
2023-04-14T15:23:54.576Z,16.10
2023-04-14T15:26:22.439Z,16.10
2023-04-14T15:28:50.305Z,16.10
2023-04-14T15:31:18.110Z,15.90
2023-04-14T15:33:47.209Z,16.00
2023-04-14T15:36:15.408Z,16.00
2023-04-14T15:38:43.196Z,16.30
2023-04-14T16:11:04.951Z,16.30
2023-04-14T16:13:32.809Z,16.20
2023-04-14T16:16:01.149Z,16.20
2023-04-14T16:18:28.975Z,16.20
2023-04-14T16:20:57.828Z,16.10
2023-04-14T16:23:28.687Z,16.00
2023-04-14T16:25:57.510Z,16.00
2023-04-14T16:28:25.739Z,16.00
2023-04-14T16:43:26.111Z,16.00
2023-04-14T16:45:53.965Z,16.10
2023-04-14T16:53:19.400Z,17.10
2023-04-14T16:55:47.138Z,17.50
2023-04-14T16:58:16.682Z,17.50
2023-04-14T17:05:41.284Z,18.50
2023-04-14T17:08:09.150Z,19.00
2023-04-14T17:20:33.132Z,19.70
2023-04-14T17:25:29.231Z,19.60
2023-04-14T17:30:26.150Z,19.50
2023-04-14T17:35:24.238Z,19.40
2023-04-14T17:37:52.756Z,19.40
2023-04-14T17:40:20.498Z,19.00
2023-04-14T17:42:48.665Z,19.00
2023-04-14T17:45:22.941Z,18.90
2023-04-14T17:52:51.181Z,19.00
2023-04-14T18:02:46.926Z,18.60
2023-04-14T18:07:44.358Z,18.00
2023-04-14T18:10:12.279Z,17.80
2023-04-14T18:12:40.197Z,17.60
2023-04-14T18:15:10.168Z,17.60
2023-04-14T18:17:38.296Z,17.40
2023-04-14T18:22:34.764Z,17.10
2023-04-14T18:30:03.675Z,16.60
2023-04-14T18:32:32.259Z,16.60
2023-04-14T18:37:28.635Z,16.10
2023-04-14T18:39:56.573Z,15.90
2023-04-14T18:42:27.185Z,15.60
2023-04-14T18:44:54.944Z,15.40
2023-04-14T18:47:23.077Z,15.40
2023-04-14T18:49:51.425Z,15.20
2023-04-14T18:52:20.054Z,15.00
2023-04-14T18:54:48.136Z,15.10
2023-04-14T18:57:16.215Z,15.00
2023-04-14T18:59:45.721Z,14.90
2023-04-14T19:02:15.064Z,14.80
2023-04-14T19:04:42.920Z,14.80
2023-04-14T19:07:10.714Z,14.70
2023-04-14T19:09:39.534Z,14.60
2023-04-14T19:12:15.549Z,14.50
2023-04-14T19:17:22.981Z,14.30
2023-04-14T19:19:50.948Z,14.30
2023-04-14T19:27:15.790Z,14.10
2023-04-14T19:29:43.575Z,14.10
2023-04-14T19:32:12.990Z,14.10
2023-04-14T19:34:41.088Z,14.00
2023-04-14T19:37:10.821Z,13.90
2023-04-14T19:39:38.823Z,13.70
2023-04-14T19:42:06.581Z,13.40
2023-04-14T19:44:35.226Z,13.30
2023-04-14T19:47:03.939Z,13.10
2023-04-14T19:49:33.263Z,13.10
2023-04-14T19:52:01.816Z,13.10
2023-04-14T19:54:29.698Z,13.00
2023-04-14T19:56:57.564Z,13.00
2023-04-14T19:59:25.292Z,12.90
2023-04-14T20:01:53.795Z,12.90
2023-04-14T20:04:21.808Z,12.80
2023-04-14T20:19:12.714Z,12.70
2023-04-14T20:21:40.705Z,12.60
2023-04-14T20:26:42.532Z,12.70
2023-04-14T20:29:10.425Z,12.70
2023-04-14T20:31:39.565Z,12.70
2023-04-14T20:34:07.406Z,12.70
2023-04-14T20:39:05.458Z,12.70
2023-04-14T20:41:36.279Z,12.80
2023-04-14T20:44:04.505Z,12.80
2023-04-14T20:51:32.141Z,12.80
2023-04-14T20:54:01.189Z,12.80
2023-04-14T20:56:30.673Z,12.80
2023-04-14T20:59:00.167Z,12.80
2023-04-14T21:01:28.209Z,12.80
2023-04-14T21:03:58.408Z,12.80
2023-04-14T21:15:31.115Z,12.80
2023-04-14T21:16:42.914Z,12.80
2023-04-14T21:19:13.256Z,12.80
2023-04-14T21:21:41.034Z,12.80
2023-04-14T21:24:09.346Z,12.80
2023-04-14T21:26:37.207Z,12.70
2023-04-14T21:29:05.091Z,12.70
2023-04-14T21:31:32.939Z,12.70
2023-04-14T21:34:02.265Z,12.60
2023-04-14T21:36:30.078Z,12.50
2023-04-14T21:41:26.153Z,12.30
2023-04-14T21:43:54.498Z,12.30
2023-04-14T21:46:22.370Z,12.20
2023-04-14T21:48:50.428Z,12.10
2023-04-14T21:51:19.605Z,12.00
2023-04-14T21:53:47.337Z,12.00
2023-04-14T21:56:15.229Z,11.80
2023-04-14T21:58:43.300Z,11.80
2023-04-14T22:01:11.178Z,11.70
2023-04-14T22:03:41.341Z,11.70
2023-04-14T22:06:11.136Z,11.70
2023-04-14T22:08:41.637Z,11.70
2023-04-14T22:11:09.691Z,11.70
2023-04-14T22:13:37.572Z,11.80
2023-04-14T22:16:05.799Z,11.70
2023-04-14T22:18:33.726Z,11.80
2023-04-14T22:21:02.159Z,11.80
2023-04-14T22:23:30.014Z,11.80
2023-04-14T22:25:59.133Z,11.80
2023-04-14T22:28:27.208Z,11.70
2023-04-14T22:30:55.113Z,11.70
2023-04-14T22:33:23.039Z,11.70
2023-04-14T22:35:50.930Z,11.70
2023-04-14T22:40:46.868Z,11.70
2023-04-14T22:43:16.322Z,11.60
2023-04-14T22:45:44.171Z,11.50
2023-04-14T22:48:12.130Z,11.40
2023-04-14T22:50:40.367Z,11.20
2023-04-14T22:53:08.462Z,11.20
2023-04-14T22:55:36.473Z,11.10
2023-04-14T22:58:04.381Z,11.10
2023-04-14T23:00:33.535Z,11.10
2023-04-14T23:03:01.548Z,11.10
2023-04-14T23:05:29.579Z,11.00
2023-04-14T23:07:57.374Z,11.00
2023-04-14T23:10:25.418Z,11.00
2023-04-14T23:15:21.504Z,11.00
2023-04-14T23:17:51.028Z,11.00
2023-04-14T23:20:19.130Z,11.10
2023-04-14T23:22:46.972Z,11.10
2023-04-14T23:25:15.671Z,11.20
2023-04-14T23:27:43.438Z,11.20
2023-04-14T23:30:11.659Z,11.30
2023-04-14T23:32:39.502Z,11.30
2023-04-14T23:35:10.220Z,11.30
2023-04-14T23:37:38.800Z,11.30
2023-04-14T23:40:08.003Z,11.30
2023-04-14T23:42:35.820Z,11.30
2023-04-14T23:45:03.644Z,11.20
2023-04-14T23:47:31.957Z,11.20
2023-04-14T23:49:59.783Z,11.20
2023-04-14T23:52:28.874Z,11.10
2023-04-14T23:57:25.487Z,11.00
2023-04-14T23:59:53.430Z,11.00
